GCLALEZL

Guest
Details From GCLA - La Palma
To LEZL - Sevilla
Flight Number -
Tags Generated
Created
Modified
Stats Distance 796 nm / 1,474 km
Max Altitude 0 ft / 0 m
Waypoints 3
Social Downloads 0
Likes 0
Share VATSIM

Download

Looking for another format? Having issues loading an existing format? Contact us
Advertisement - Login to hide

Notes

Generated

Route

GCLA SVL08 LEZL

ID Type Via Altitude Latitude Longitude Leg Dist Tot Dist Heading (true) Name
O GCLA APT - 0 ft / 0 m 28.61659˚ -17.75542˚ - 0 nm - -
SVL08 FIX - 0 ft / 0 m 37.41612˚ -5.92905˚ 795 nm 795 nm 45° / 52° -
O LEZL APT - 0 ft / 0 m 37.41788˚ -5.91208˚ 0 nm 795 nm 83° / 83° -

Altitude Profile

Advertisement - Login to hide

Weather


0- 5 10 15 20 25 30 35+ Temperature / ° C

Clouds and Precipitation
Forecast for 2018-05-24 18:00 UTC. Updated 4 hours ago

Ground ~20,000 ft ~40,000 ft Winds

GCLA

Details ICAO GCLA (SPC)
Name La Palma
Region Canary Islands
Timezone Atlantic/Canary (UTC+1.0)
Stats Elevation 107 ft / 33 m (AMSL)
Location 28.626480° -17.755613°
Runways 1
Magnetic Variation 5.470° W

METAR

GCLA 242130Z AUTO 03016KT 9999 SCT057 19/14 Q1019

Decode

TAF

TAF GCLA 242000Z 2421/2521 04014KT 9999 BKN045 TX23/2514Z TN17/2505Z TEMPO 2421/2509 34004KT

Decode

Departure Runways

ID Width Length Bearing (true) Bearing (mag) Surface Threshold Offset Overrun Length
01 148 ft / 45 m 7,240 ft / 2,207 m 359.02° 4.49° Asphalt 0 ft / 0 m 279 ft / 85 m
19 148 ft / 45 m 7,240 ft / 2,207 m 179.02° 184.49° Asphalt 0 ft / 0 m 236 ft / 72 m

LEZL

Details ICAO LEZL (SVQ)
Name Sevilla
Region Spain
Timezone Europe/Madrid (UTC+2.0)
Stats Elevation 111 ft / 34 m (AMSL)
Location 37.417939° -5.893093°
Runways 1
Magnetic Variation 1.245° W

METAR

LEZL 242130Z 19004KT 160V230 9999 FEW023 16/14 Q1015 NOSIG

Decode

TAF

TAF LEZL 242000Z 2421/2521 19006KT 9999 SCT030 TX23/2515Z TN14/2506Z PROB40 TEMPO 2506/2515 4000 SHRA SCT020 SCT030CB

Decode

Destination Runways

ID Width Length Bearing (true) Bearing (mag) Surface Threshold Offset Overrun Length
09 148 ft / 45 m 11,008 ft / 3,355 m 89.75° 90.99° Asphalt 0 ft / 0 m 0 ft / 0 m
27 148 ft / 45 m 11,008 ft / 3,355 m 269.77° 271.01° Asphalt 0 ft / 0 m 0 ft / 0 m

Approach Navaids

Runway Type Ident Frequency Range Bearing (true) Bearing (mag) Slope Elevation
09 Localiser ISE 111.10 MHz 18 nm / 33 km 89.77° 91.01° - 111 ft / 34 m (AMSL)
09 Glidescope ISE 111.10 MHz 10 nm / 19 km 89.76° 91.00° 3.00° 111 ft / 34 m (AMSL)
09 DME ISE 111.10 MHz 18 nm / 33 km - - - 102 ft / 31 m (AMSL)
27 Localiser ISV 110.10 MHz 18 nm / 33 km 269.74° 270.99° - 111 ft / 34 m (AMSL)
27 Glidescope ISV 110.10 MHz 10 nm / 19 km 269.76° 271.00° 3.00° 22 ft / 7 m (AMSL)
27 DME ISV 110.10 MHz 18 nm / 33 km - - - 22 ft / 7 m (AMSL)

Popular Alternatives